Albuquerque, NM

12:57 AM MDT on September 04, 2015 (GMT -0600)
Cielito Lindo | | Change Station
CLOSE
Current Station
Personal Weather Station
Location: Albuquerque, NM
Elevation: 5648 ft
Nearby Weather Stations

Elev 5648 ft 35.13 °N, 106.52 °W | Updated 4 seconds ago

Overcast
Overcast
71.8 °F
Feels Like 77 °F
N
0.0
Wind Variable Wind from SE
Gusts 2.0 mph

Today
High -- | Low -- °F
--% Chance of Precip.
Yesterday
High -- | Low -- °F
Precip. -- in
6:40 AM 7:28 PM
Waning Gibbous, 62% visible
Pressure 29.83 in
Visibility 10.0 miles
Clouds Few 10000 ft
Mostly Cloudy 18000 ft
Heat Index 77 °F
Dew Point 50 °F
Humidity 47%
Rainfall 0.00 in
Snow Depth Not available.
UV 0 out of 12
Pollen 7.30 out of 12
Air Quality Not available.
Flu Activity Not available.
METAR KABQ 040652Z 12005KT 10SM FEW100 BKN180 22/09 A3009 RMK AO2 SLP100 T02220094 403110178
Pressure 29.83 in
Visibility 10.0 miles
Clouds Few 10000 ft
Mostly Cloudy 18000 ft
Heat Index 77 °F
Dew Point 50 °F
Humidity 47%
Rainfall 0.00 in
Snow Depth Not available.
UV 0 out of 12
Pollen 7.30 out of 12
Air Quality Not available.
Flu Activity Not available.
METAR KABQ 040652Z 12005KT 10SM FEW100 BKN180 22/09 A3009 RMK AO2 SLP100 T02220094 403110178

10-Day Weather Forecast

×

Almanac

Astronomy

Sep. 04, 2015 Rise Set
Actual Time
Civil Twilight
Nautical Twilight
Astronomical Twilight
Moon
Length of Visible Light
Length of Day
Tomorrow will be .
, % of the Moon is Illuminated

Today's Extremes

State Highs State Lows

Community

WunderPhotos

Upload Photos

1,852,132 photos uploaded!

WunderBlogs® & News

Nearby

Air Quality

  Air Quality AQ Index Pollutant
Not available.

Snow Depth

Station Depth Elevation

Earthquake Activity

City Distance Mag. Time & Date
Minimum magnitude displayed is 2.5.

Coastal Water Temperatures

Place Temperature

Stations

Nearby Weather Stations

Station Location Temp. Windchill Dew Point Humidity Wind Precip. Elev Updated Type